Time;durP1;ratioP1;P1;durP2;ratioP2;P2;SDS_P1;SDS_P2;PMS_P1;PMS_P2;Temp;Humidity;BMP_temperature;BMP_pressure;BME280_temperature;BME280_humidity;BME280_pressure;Samples;Min_cycle;Max_cycle;Signal;HPM_P1;HPM_P2
2023/12/28 19:17:08;;;;;;;28.90;15.30;;;;;;;10.35;55.16;98981.77;229500;215;707132;-59
2023/12/28 19:22:13;;;;;;;22.60;12.40;;;;;;;10.09;54.87;98988.86;232100;196;137327;-58
2023/12/28 19:27:16;;;;;;;27.90;11.70;;;;;;;9.79;55.38;98989.60;231889;203;137238;-58
2023/12/28 19:32:20;;;;;;;25.80;12.90;;;;;;;9.59;56.01;98987.59;232510;203;148695;-59
2023/12/28 19:37:23;;;;;;;33.90;13.80;;;;;;;9.45;56.53;99002.95;232506;202;136188;-59
2023/12/28 19:42:26;;;;;;;28.00;15.00;;;;;;;9.29;56.93;98994.64;231912;200;137396;-59
2023/12/28 19:47:30;;;;;;;25.40;14.10;;;;;;;9.05;57.40;98996.70;232593;203;148116;-60
2023/12/28 19:52:33;;;;;;;22.90;13.60;;;;;;;8.78;58.07;99005.47;232057;201;136354;-60
2023/12/28 19:57:36;;;;;;;21.50;11.90;;;;;;;8.67;58.61;99007.84;232516;203;136574;-58
2023/12/28 20:02:40;;;;;;;22.30;12.60;;;;;;;8.59;59.11;99002.50;232530;203;147817;-59
2023/12/28 20:07:43;;;;;;;21.40;12.40;;;;;;;8.52;59.40;99004.11;231687;200;136852;-61
2023/12/28 20:12:46;;;;;;;25.40;12.70;;;;;;;8.42;59.91;99001.95;232464;200;137422;-60
2023/12/28 20:17:50;;;;;;;24.20;12.70;;;;;;;8.52;60.35;99004.26;231960;203;150363;-59
2023/12/28 20:22:54;;;;;;;20.60;11.90;;;;;;;8.67;60.09;98996.74;232121;197;137865;-58
2023/12/28 20:28:00;;;;;;;27.50;13.10;;;;;;;8.67;60.16;98991.98;231852;204;137285;-59
2023/12/28 20:33:06;;;;;;;23.80;13.50;;;;;;;8.76;60.13;98988.98;232308;196;150122;-59
2023/12/28 20:38:10;;;;;;;23.60;13.30;;;;;;;8.88;60.01;98996.26;232343;201;136026;-59
2023/12/28 20:43:13;;;;;;;25.10;13.60;;;;;;;9.00;59.75;98990.27;232470;201;136564;-59
2023/12/28 20:48:16;;;;;;;21.40;13.60;;;;;;;9.12;59.56;98996.18;232112;204;150746;-58
2023/12/28 20:53:19;;;;;;;22.50;13.10;;;;;;;9.24;59.21;98999.02;232614;204;137022;-58
2023/12/28 20:58:23;;;;;;;21.60;13.70;;;;;;;9.35;58.90;98998.94;231597;203;136803;-59
2023/12/28 21:03:26;;;;;;;24.90;14.80;;;;;;;9.41;58.71;98998.77;232041;203;149344;-59
2023/12/28 21:08:30;;;;;;;27.00;16.90;;;;;;;9.41;58.62;99000.90;231997;197;137874;-58
2023/12/28 21:13:38;;;;;;;26.40;15.20;;;;;;;9.41;58.58;99001.02;231759;197;137191;-58
2023/12/28 21:18:41;;;;;;;25.20;15.80;;;;;;;9.43;58.49;98998.45;232133;204;149552;-58
2023/12/28 21:23:48;;;;;;;27.50;15.70;;;;;;;9.45;58.36;99002.23;231935;201;137651;-58
2023/12/28 21:28:51;;;;;;;27.10;16.80;;;;;;;9.51;58.32;99001.34;232094;204;140751;-58
2023/12/28 21:33:54;;;;;;;29.70;18.30;;;;;;;9.55;58.12;99001.80;231718;197;149534;-57
2023/12/28 21:38:58;;;;;;;30.10;17.00;;;;;;;9.50;58.16;98999.64;231970;204;137067;-58
2023/12/28 21:44:01;;;;;;;30.00;17.20;;;;;;;9.48;58.27;98994.63;232491;203;250611;-59
2023/12/28 21:49:04;;;;;;;29.30;17.30;;;;;;;9.52;58.29;98989.09;232510;196;149735;-59
2023/12/28 21:54:08;;;;;;;29.10;17.00;;;;;;;9.53;58.17;99000.71;231484;201;136585;-58
2023/12/28 21:59:11;;;;;;;27.70;17.50;;;;;;;9.52;58.18;99003.59;232622;200;137622;-58
2023/12/28 22:04:15;;;;;;;28.10;17.30;;;;;;;9.48;58.23;99006.30;232295;204;149556;-57
2023/12/28 22:09:19;;;;;;;31.20;18.10;;;;;;;9.49;58.37;99009.79;231864;204;137907;-58
2023/12/28 22:14:22;;;;;;;28.20;17.00;;;;;;;9.50;58.37;99006.36;231980;200;137232;-56
2023/12/28 22:19:28;;;;;;;28.00;16.40;;;;;;;9.43;58.48;99010.64;232231;203;150132;-58
2023/12/28 22:24:31;;;;;;;28.80;16.50;;;;;;;9.38;58.79;99009.53;232494;200;137892;-57
2023/12/28 22:29:35;;;;;;;28.80;16.50;;;;;;;9.32;58.99;99011.83;232552;200;136662;-59
2023/12/28 22:34:38;;;;;;;29.60;15.80;;;;;;;9.30;59.24;99003.64;232409;200;149452;-58
2023/12/28 22:39:43;;;;;;;26.40;16.00;;;;;;;9.28;59.28;98999.15;232482;204;136862;-58
2023/12/28 22:44:46;;;;;;;26.30;16.30;;;;;;;9.24;59.48;98999.02;232459;197;136300;-58
2023/12/28 22:49:49;;;;;;;28.60;16.80;;;;;;;9.22;59.44;98995.38;231854;197;150049;-58
2023/12/28 22:54:53;;;;;;;30.20;16.40;;;;;;;9.18;59.55;99006.95;231873;204;136757;-58
2023/12/28 22:59:57;;;;;;;30.80;16.80;;;;;;;9.11;59.68;99013.41;232186;203;136918;-58
2023/12/28 23:05:00;;;;;;;25.20;16.30;;;;;;;8.98;59.87;99017.81;232416;204;150659;-58
2023/12/28 23:10:04;;;;;;;28.20;17.00;;;;;;;8.86;60.19;99021.69;232436;201;138396;-58
2023/12/28 23:15:09;;;;;;;32.20;18.10;;;;;;;8.85;60.31;99013.08;232539;204;137321;-59
2023/12/28 23:20:13;;;;;;;29.90;18.10;;;;;;;8.83;60.46;99019.74;232447;200;150474;-58
2023/12/28 23:25:18;;;;;;;29.80;16.90;;;;;;;8.84;60.61;99007.67;232229;203;139070;-59
2023/12/28 23:30:22;;;;;;;33.00;17.50;;;;;;;8.83;60.72;99005.04;231930;204;138617;-58
2023/12/28 23:35:25;;;;;;;31.40;19.20;;;;;;;8.86;60.77;98996.76;231760;204;151030;-58
2023/12/28 23:40:28;;;;;;;33.40;18.90;;;;;;;8.88;60.74;98994.16;232201;203;137578;-57
2023/12/28 23:45:31;;;;;;;34.10;19.50;;;;;;;8.88;60.65;98980.19;232342;196;138662;-58
2023/12/28 23:50:35;;;;;;;31.90;19.50;;;;;;;8.82;60.73;98981.56;232373;203;149554;-58
2023/12/28 23:55:38;;;;;;;36.60;19.00;;;;;;;8.79;61.15;98976.99;232503;200;139281;-59
